createdAt,value
2023-04-02T00:02:59.533Z,122.75
2023-04-02T00:08:05.076Z,122.50
2023-04-02T00:13:09.234Z,125.75
2023-04-02T00:18:23.785Z,120.50
2023-04-02T00:23:28.269Z,118.00
2023-04-02T00:28:33.512Z,117.25
2023-04-02T00:33:37.701Z,118.50
2023-04-02T00:38:46.829Z,115.25
2023-04-02T00:43:53.700Z,117.25
2023-04-02T00:49:18.625Z,112.00
2023-04-02T00:54:24.104Z,114.25
2023-04-02T00:59:30.428Z,108.50
2023-04-02T01:04:37.857Z,104.50
2023-04-02T01:09:44.883Z,106.75
2023-04-02T01:15:05.340Z,95.75
2023-04-02T01:20:28.027Z,94.50
2023-04-02T01:25:41.597Z,93.33
2023-04-02T01:30:46.799Z,91.00
2023-04-02T01:35:59.167Z,96.67
2023-04-02T01:41:11.170Z,93.00
2023-04-02T01:46:30.114Z,90.33
2023-04-02T01:51:36.161Z,88.33
2023-04-02T01:56:43.866Z,91.00
2023-04-02T02:01:53.155Z,72.33
2023-04-02T02:06:59.871Z,67.33
2023-04-02T02:54:05.880Z,62.33
2023-04-02T03:31:01.791Z,54.00
2023-04-02T03:36:24.290Z,53.00
2023-04-02T03:41:34.250Z,53.50
2023-04-02T03:46:42.361Z,54.00
2023-04-02T03:51:54.482Z,52.25
2023-04-02T03:56:59.490Z,54.25
2023-04-02T04:02:15.376Z,50.75
2023-04-02T04:07:31.536Z,52.75
2023-04-02T04:12:45.241Z,49.25
2023-04-02T04:17:56.100Z,49.75
2023-04-02T04:23:31.712Z,52.75
2023-04-02T04:28:45.863Z,51.00
2023-04-02T04:33:56.182Z,50.75
2023-04-02T04:39:07.027Z,47.75
2023-04-02T04:44:45.830Z,48.25
2023-04-02T04:50:07.062Z,46.00
2023-04-02T04:55:29.049Z,43.50
2023-04-02T05:00:37.169Z,47.00
2023-04-02T05:05:42.523Z,46.75
2023-04-02T05:10:53.118Z,46.75
2023-04-02T05:16:16.804Z,47.00
2023-04-02T05:21:39.249Z,46.75
2023-04-02T05:26:48.097Z,45.25
2023-04-02T05:31:59.998Z,45.75
2023-04-02T05:37:07.216Z,48.50
2023-04-02T05:42:22.909Z,41.50
2023-04-02T05:47:42.054Z,43.25
2023-04-02T05:52:53.830Z,42.75
2023-04-02T05:58:29.381Z,49.00
2023-04-02T06:03:34.141Z,44.50
2023-04-02T06:08:41.892Z,43.00
2023-04-02T06:13:46.720Z,44.25
2023-04-02T06:18:51.411Z,44.50
2023-04-02T06:24:07.455Z,44.00
2023-04-02T06:29:30.866Z,44.75
2023-04-02T06:34:38.365Z,45.25
2023-04-02T06:39:46.309Z,45.75
2023-04-02T06:44:53.634Z,46.50
2023-04-02T06:50:45.707Z,41.25
2023-04-02T06:56:08.749Z,42.75
2023-04-02T07:01:25.170Z,42.25
2023-04-02T07:06:29.284Z,42.25
2023-04-02T07:11:37.430Z,42.50
2023-04-02T07:16:44.333Z,42.25
2023-04-02T07:21:48.983Z,40.50
2023-04-02T07:26:54.409Z,40.25
2023-04-02T07:31:58.575Z,39.00
2023-04-02T07:37:03.987Z,40.75
2023-04-02T07:42:09.461Z,38.25
2023-04-02T07:47:13.776Z,37.50
2023-04-02T07:52:18.339Z,41.50
2023-04-02T07:57:22.556Z,38.75
2023-04-02T08:02:27.018Z,38.75
2023-04-02T08:07:31.718Z,39.00
2023-04-02T08:12:36.014Z,37.75
2023-04-02T08:17:40.247Z,39.75
2023-04-02T08:22:44.568Z,35.75
2023-04-02T08:27:49.496Z,39.00
2023-04-02T08:32:53.880Z,35.25
2023-04-02T08:37:58.208Z,37.00
2023-04-02T08:43:02.569Z,35.50
2023-04-02T08:48:07.787Z,35.50
2023-04-02T08:53:32.567Z,35.50
2023-04-02T08:58:48.824Z,35.75
2023-04-02T09:03:55.976Z,35.75
2023-04-02T09:09:01.778Z,34.00
2023-04-02T09:14:08.955Z,34.75
2023-04-02T09:19:17.773Z,35.75
2023-04-02T09:24:22.244Z,34.50
2023-04-02T09:30:04.669Z,33.75
2023-04-02T09:35:26.666Z,34.75
2023-04-02T09:40:50.207Z,33.25
2023-04-02T09:45:59.876Z,33.50
2023-04-02T09:51:10.146Z,34.25
2023-04-02T09:56:14.782Z,35.00
2023-04-02T10:01:30.907Z,39.50
2023-04-02T10:06:36.009Z,38.50
2023-04-02T10:11:46.405Z,44.25
2023-04-02T10:16:55.778Z,41.25
2023-04-02T10:22:02.594Z,37.75
2023-04-02T10:27:27.045Z,37.00
2023-04-02T10:32:49.756Z,37.25
2023-04-02T10:37:54.203Z,40.75
2023-04-02T10:43:11.781Z,40.25
2023-04-02T10:48:35.202Z,39.00
2023-04-02T10:54:00.154Z,40.25
2023-04-02T10:59:16.340Z,42.25
2023-04-02T11:04:24.117Z,42.75
2023-04-02T11:09:32.790Z,42.50
2023-04-02T11:14:38.259Z,42.25
2023-04-02T11:19:43.266Z,41.00
2023-04-02T11:24:52.698Z,42.25
2023-04-02T11:30:15.557Z,40.00
2023-04-02T11:35:29.776Z,44.75
2023-04-02T11:40:41.844Z,41.00
2023-04-02T11:45:52.608Z,41.50
2023-04-02T11:50:58.750Z,43.25
2023-04-02T11:56:22.574Z,79.67
2023-04-02T12:04:53.419Z,50.75
2023-04-02T12:10:02.273Z,45.00
2023-04-02T12:15:29.178Z,47.25
2023-04-02T12:20:34.964Z,48.25
2023-04-02T12:25:42.344Z,48.00
2023-04-02T12:30:47.495Z,46.00
2023-04-02T12:35:56.767Z,47.75
2023-04-02T12:41:03.232Z,47.75
2023-04-02T12:46:09.147Z,44.00
2023-04-02T12:51:13.784Z,43.50
2023-04-02T12:56:25.748Z,48.00
2023-04-02T13:01:32.983Z,43.50
2023-04-02T13:06:38.324Z,44.00
2023-04-02T13:11:43.538Z,47.25
2023-04-02T13:16:48.316Z,43.75
2023-04-02T13:21:54.640Z,41.25
2023-04-02T13:27:00.544Z,40.50
2023-04-02T13:32:06.902Z,44.00
2023-04-02T13:37:13.880Z,41.75
2023-04-02T13:42:19.881Z,39.50
2023-04-02T13:47:24.646Z,38.75
2023-04-02T13:52:29.250Z,38.50
2023-04-02T13:57:36.362Z,37.00
2023-04-02T14:02:45.300Z,38.75
2023-04-02T14:07:56.138Z,37.25
2023-04-02T14:13:19.459Z,39.00
2023-04-02T14:18:42.580Z,38.00
2023-04-02T14:24:06.269Z,38.50
2023-04-02T14:29:24.390Z,37.50
2023-04-02T14:34:46.414Z,36.25
2023-04-02T14:39:59.101Z,36.25
2023-04-02T14:45:07.997Z,35.75
2023-04-02T14:50:15.605Z,36.00
2023-04-02T14:55:35.382Z,34.75
2023-04-02T15:00:48.766Z,36.00
2023-04-02T15:05:55.315Z,35.25
2023-04-02T15:11:19.666Z,35.00
2023-04-02T15:16:28.357Z,34.25
2023-04-02T15:21:49.660Z,34.75
2023-04-02T15:27:14.670Z,35.75
2023-04-02T15:32:33.814Z,34.75
2023-04-02T15:37:57.082Z,33.75
2023-04-02T15:43:16.443Z,34.50
2023-04-02T15:48:28.618Z,33.50
2023-04-02T15:54:12.068Z,34.00
2023-04-02T15:59:20.115Z,33.50
2023-04-02T16:04:28.635Z,32.75
2023-04-02T16:09:45.875Z,33.75
2023-04-02T16:14:57.794Z,33.00
2023-04-02T16:20:07.819Z,32.75
2023-04-02T16:25:24.876Z,33.25
2023-04-02T16:30:42.214Z,31.75
2023-04-02T16:35:55.323Z,33.75
2023-04-02T16:41:08.927Z,34.00
2023-04-02T16:46:14.780Z,31.00
2023-04-02T16:51:23.155Z,32.50
2023-04-02T16:56:41.725Z,32.25
2023-04-02T17:01:59.911Z,31.00
2023-04-02T17:07:13.954Z,30.25
2023-04-02T17:12:30.077Z,31.25
2023-04-02T17:17:34.705Z,31.50
2023-04-02T17:22:39.323Z,30.50
2023-04-02T17:27:47.185Z,32.50
2023-04-02T17:32:51.972Z,31.25
2023-04-02T17:38:02.616Z,31.25
2023-04-02T17:43:12.435Z,31.25
2023-04-02T17:48:28.856Z,32.00
2023-04-02T17:53:36.191Z,32.00
2023-04-02T17:58:40.719Z,29.75
2023-04-02T18:04:00.500Z,32.00
2023-04-02T18:09:16.253Z,30.75
2023-04-02T18:14:20.757Z,30.00
2023-04-02T18:19:34.999Z,28.75
2023-04-02T18:24:40.724Z,30.50
2023-04-02T18:30:03.708Z,29.00
2023-04-02T18:35:23.839Z,30.50
2023-04-02T18:40:31.829Z,29.75
2023-04-02T18:45:55.097Z,29.00
2023-04-02T18:51:01.502Z,30.50
2023-04-02T18:56:08.249Z,30.50
2023-04-02T19:01:15.423Z,30.50
2023-04-02T19:06:28.844Z,28.50
2023-04-02T19:11:33.949Z,28.25
2023-04-02T19:16:41.860Z,28.25
2023-04-02T19:22:06.034Z,28.00
2023-04-02T19:27:10.938Z,29.00
2023-04-02T19:32:25.616Z,28.25
2023-04-02T19:37:40.007Z,29.00
2023-04-02T19:42:46.587Z,28.50
2023-04-02T19:47:51.767Z,27.75
2023-04-02T19:52:56.764Z,27.50
2023-04-02T19:58:17.233Z,28.75
2023-04-02T20:03:23.933Z,27.50
2023-04-02T20:08:29.164Z,27.50
2023-04-02T20:13:34.111Z,28.25
2023-04-02T20:18:38.846Z,27.50
2023-04-02T20:23:43.558Z,26.00
2023-04-02T20:28:48.171Z,27.00
2023-04-02T20:33:56.205Z,28.00
2023-04-02T20:39:00.910Z,28.75
2023-04-02T20:44:05.517Z,27.25
2023-04-02T20:49:10.043Z,29.50
2023-04-02T20:54:14.597Z,26.75
2023-04-02T20:59:19.331Z,26.50
2023-04-02T21:04:24.112Z,26.00
2023-04-02T21:09:28.650Z,27.25
2023-04-02T21:14:37.463Z,27.50
2023-04-02T21:19:42.061Z,27.25
2023-04-02T21:24:46.900Z,27.25
2023-04-02T21:29:51.518Z,26.25
2023-04-02T21:34:56.608Z,26.50
2023-04-02T21:40:01.182Z,26.75
2023-04-02T21:45:05.832Z,27.00
2023-04-02T21:50:10.838Z,26.00
2023-04-02T21:55:15.411Z,28.00
2023-04-02T22:00:20.032Z,30.00
2023-04-02T22:05:24.705Z,51.00
2023-04-02T22:10:29.393Z,43.25
2023-04-02T22:15:35.184Z,44.75
2023-04-02T22:20:40.478Z,48.00
2023-04-02T22:25:45.003Z,46.50
2023-04-02T22:30:49.999Z,49.50
2023-04-02T22:35:54.948Z,46.50
2023-04-02T22:41:12.129Z,49.25
2023-04-02T22:46:17.766Z,45.75
2023-04-02T22:51:23.353Z,46.50
2023-04-02T22:56:30.882Z,47.50
2023-04-02T23:01:36.728Z,47.00
